Tewksbury, Massachusetts
Current Conditions -  °F | °C
As of 6:54 AM on Friday 28 Nov 2014 (Local Time) from KLWM Reporting Station
Light Snow Light Snow  
Wind Chill: 20°   Ceiling: 4500
Heat Index: 27°   Visibility: 1mi
Dew Point: 24°   Wind: 6mph
Humidity: 89%   Direction: 340°NNW
Pressure: 30.05"   Gusts: NA
Location:  42.61°N, 71.23°W
Report Text: KLWM 281154Z 34005KT 1SM -SN BR BKN045 OVC050 M03/M04 A3005 RMK AO2 SLP178 P0000 60002 70005 T10281044 11017 21033 51008
Loading
Personal Weather Stations






























Interactive Weather Map New forecast layout! Learn more

10-Day Weather Forecast

Advertisements
Track Severe Weather on mobile